Main page
METAR-TAF:

METAR-TAF

Airports :

Kinshasa, Congo

N'djili Airport

latitude: 04-23S, longitude: 015-26E, elevation: 309 m

Current weather observation

The report was made 35 minutes ago, at 20:00 UTC
Wind 4 kt from the West
Temperature 25°C
Humidity 74%
Pressure 1014 hPa
Visibility: 4000 m
Broken clouds at a height of 1600 ft
mist

METAR: FZAA 202000Z 27004KT 4000 BR BKN016 25/20 Q1014 NOSIG

Time: 21:35 (20:35 UTC)

Forecast

The report was made 3 hours and 35 minutes ago, at 17:00 UTC
Forecast valid from 20 at 18 UTC to 21 at 24 UTC
Wind 6 kt from the Southwest
Visibility: 6000 m
Scattered clouds at a height of 1800 ft
Becoming
from 21 at 03 UTC to 21 at 05 UTC
Visibility: 3000 m
Broken clouds at a height of 1400 ft
mist
Becoming
from 21 at 09 UTC to 21 at 11 UTC
Visibility: 6000 m
Scattered clouds at a height of 2000 ft

TAF: FZAA 201700Z 2018/2124 22006KT 6000 SCT018 BECMG 2103/2105 3000 BR BKN014 BECMG 2109/2111 6000 NSW SCT020

Weather observations and forecasts of more than 4000 airports (METAR and TAF reports).

The available stations are represented by yellow and red dots on the map.

Hover mouse over dot to see the name of the station.

Then click to see weather observations and forecasts.

To change the map : click on the green buttons with a black cross to zoom in, on the green button with a dash to zoom out, or on the green arrows for adjacent maps.


METAR-TAF: